Buckeye, AZ

4:22 PM MST on April 26, 2018 (GMT -0700)
Buckeye Municipal

Weather History for KBXK - May, 2013

Change the Weather History Date:

Monday, May 13, 2013

  Actual Average (KGYR) Record (KGYR)
Temperature  
Mean Temperature 80 °F -  
Max Temperature 98 °F 92 °F 102 °F (1999)
Min Temperature 62 °F 63 °F 51 °F (2012)
Cooling Degree Days 15    
Growing Degree Days 30 (Base 50)    
Moisture  
Dew Point 30 °F    
Average Humidity 15    
Maximum Humidity 34    
Minimum Humidity 8    
Precipitation  
Precipitation 0.00 in - - ()
Sea Level Pressure  
Sea Level Pressure 29.94 in    
Wind  
Wind Speed 6 mph (East)    
Max Wind Speed 14 mph    
Max Gust Speed -    
Visibility 10 miles    
Events      
Averages and records for this station are not official NWS values.
T = Trace of Precipitation, MM = Missing Value Source: NWS Daily Summary

Daily Weather History Graph

Daily Weather History Graph

Search for Another Location

Airport or City:

Astronomy

May. 13, 2013 Rise Set
Actual Time 5:31 AM MST 7:22 PM MST
Civil Twilight 5:04 AM MST 7:50 PM MST
Nautical Twilight 4:31 AM MST 8:23 PM MST
Astronomical Twilight 3:56 AM MST 8:58 PM MST
Moon 8:22 AM MST (5/13) 10:34 PM MST (5/13)
Length of Visible Light 14h 45m
Length of Day
13h 51m
Waxing Crescent, 13% of the Moon is Illuminated
May 13
Waxing Crescent
May 17
First Quarter
May 24
Full
May 31
Last Quarter
Jun 8
New

Hourly Weather History & Observations

Time (MST) Temp. Dew Point Humidity Pressure Visibility Wind Dir Wind Speed Gust Speed Precip Events Conditions
12:15 AM 75.2 °F 28.4 °F 18% 29.95 in 10.0 mi NE 5.8 mph - N/A   Clear
12:35 AM 73.4 °F 26.6 °F 18% 29.95 in 10.0 mi NE 5.8 mph - N/A   Clear
12:55 AM 73.4 °F 24.8 °F 16% 29.94 in 10.0 mi NNE 5.8 mph - N/A   Clear
1:15 AM 73.4 °F 24.8 °F 16% 29.95 in 10.0 mi NNE 5.8 mph - N/A   Clear
1:35 AM 73.4 °F 24.8 °F 16% 29.95 in 10.0 mi NNE 5.8 mph - N/A   Clear
1:55 AM 73.4 °F 24.8 °F 16% 29.95 in 10.0 mi NNE 6.9 mph - N/A   Clear
2:15 AM 73.4 °F 26.6 °F 18% 29.95 in 10.0 mi NNE 6.9 mph - N/A   Clear
2:35 AM 71.6 °F 26.6 °F 19% 29.95 in 10.0 mi North 3.5 mph - N/A   Clear
2:55 AM 68.0 °F 26.6 °F 21% 29.96 in 10.0 mi NNW 5.8 mph - N/A   Clear
3:15 AM 68.0 °F 26.6 °F 21% 29.96 in 10.0 mi North 8.1 mph - N/A   Clear
3:35 AM 68.0 °F 30.2 °F 24% 29.96 in 10.0 mi South 5.8 mph - N/A   Clear
3:55 AM 66.2 °F 32.0 °F 28% 29.96 in 10.0 mi West 5.8 mph - N/A   Clear
4:15 AM 66.2 °F 26.6 °F 23% 29.96 in 10.0 mi Calm Calm - N/A   Clear
4:35 AM 64.4 °F 35.6 °F 34% 29.96 in 10.0 mi Calm Calm - N/A   Clear
4:55 AM 64.4 °F 28.4 °F 26% 29.96 in 10.0 mi NNE 4.6 mph - N/A   Clear
5:15 AM 62.6 °F 26.6 °F 26% 29.97 in 10.0 mi NW 6.9 mph - N/A   Clear
5:35 AM 64.4 °F 26.6 °F 24% 29.98 in 5.0 mi NNW 5.8 mph - N/A   Clear
5:55 AM 64.4 °F 26.6 °F 24% 29.99 in 7.0 mi North 5.8 mph - N/A   Clear
6:35 AM 68.0 °F 26.6 °F 21% 30.01 in 10.0 mi North 3.5 mph - N/A   Clear
6:55 AM 73.4 °F 28.4 °F 19% 30.01 in 10.0 mi ENE 3.5 mph - N/A   Clear
7:15 AM 77.0 °F 37.4 °F 24% 30.02 in 10.0 mi Calm Calm - N/A   Clear
7:35 AM 77.0 °F 41.0 °F 28% 30.02 in 5.0 mi Calm Calm - N/A   Clear
7:55 AM 78.8 °F 46.4 °F 32% 30.02 in 5.0 mi SE 5.8 mph - N/A   Clear
8:15 AM 84.2 °F 41.0 °F 22% 30.03 in 9.0 mi East 9.2 mph - N/A   Clear
8:35 AM 86.0 °F 35.6 °F 17% 30.03 in 10.0 mi East 11.5 mph - N/A   Clear
8:55 AM 86.0 °F 33.8 °F 15% 30.02 in 10.0 mi East 12.7 mph - N/A   Clear
9:15 AM 86.0 °F 37.4 °F 18% 30.03 in 10.0 mi ESE 11.5 mph - N/A   Clear
9:35 AM 89.6 °F 37.4 °F 16% 30.03 in 10.0 mi East 13.8 mph - N/A   Clear
9:55 AM 89.6 °F 37.4 °F 16% 30.03 in 10.0 mi East 11.5 mph - N/A   Clear
10:15 AM 91.4 °F 33.8 °F 13% 30.02 in 10.0 mi East 12.7 mph - N/A   Clear
10:35 AM 91.4 °F 35.6 °F 14% 30.02 in 10.0 mi East 11.5 mph - N/A   Clear
10:55 AM 91.4 °F 33.8 °F 13% 30.02 in 10.0 mi ESE 10.4 mph - N/A   Clear
11:15 AM 93.2 °F 33.8 °F 12% 30.02 in 10.0 mi ESE 6.9 mph - N/A   Clear
11:35 AM 93.2 °F 32.0 °F 11% 30.01 in 10.0 mi East 6.9 mph - N/A   Clear
11:55 AM 95.0 °F 30.2 °F 10% 30.00 in 10.0 mi ESE 6.9 mph - N/A   Clear
12:15 PM 95.0 °F 30.2 °F 10% 30.00 in 10.0 mi SE 3.5 mph - N/A   Clear
12:35 PM 95.0 °F 28.4 °F 9% 29.99 in 10.0 mi SE 4.6 mph - N/A   Clear
1:35 PM 96.8 °F 32.0 °F 10% 29.97 in 10.0 mi SE 8.1 mph - N/A   Clear
1:55 PM 96.8 °F 30.2 °F 10% 29.96 in 10.0 mi WSW 4.6 mph - N/A   Clear
2:15 PM 98.6 °F 30.2 °F 9% 29.95 in 10.0 mi SSE 8.1 mph - N/A   Clear
2:35 PM 98.6 °F 28.4 °F 8% 29.94 in 10.0 mi SSE 6.9 mph - N/A   Clear
2:55 PM 98.6 °F 28.4 °F 8% 29.93 in 10.0 mi South 6.9 mph - N/A   Clear
3:15 PM 98.6 °F 30.2 °F 9% 29.92 in 10.0 mi SSW 4.6 mph - N/A   Clear
3:35 PM 98.6 °F 30.2 °F 9% 29.91 in 10.0 mi South 6.9 mph - N/A   Clear
3:55 PM 98.6 °F 30.2 °F 9% 29.90 in 10.0 mi SE 4.6 mph - N/A   Clear
4:55 PM 98.6 °F 28.4 °F 8% 29.87 in 10.0 mi SSE 3.5 mph - N/A   Clear
5:15 PM 98.6 °F 28.4 °F 8% 29.86 in 10.0 mi SSE 5.8 mph - N/A   Clear
5:35 PM 98.6 °F 28.4 °F 8% 29.86 in 10.0 mi SW 4.6 mph - N/A   Clear
5:55 PM 98.6 °F 30.2 °F 9% 29.85 in 10.0 mi SSE 4.6 mph - N/A   Clear
6:15 PM 98.6 °F 30.2 °F 9% 29.85 in 10.0 mi SSE 3.5 mph - N/A   Clear
6:35 PM 96.8 °F 30.2 °F 10% 29.84 in 9.0 mi Calm Calm - N/A   Clear
6:55 PM 95.0 °F 32.0 °F 11% 29.84 in 10.0 mi Calm Calm - N/A   Clear
7:15 PM 93.2 °F 32.0 °F 11% 29.84 in 10.0 mi Calm Calm - N/A   Clear
7:35 PM 93.2 °F 33.8 °F 12% 29.84 in 10.0 mi Calm Calm - N/A   Clear
7:55 PM 91.4 °F 30.2 °F 11% 29.85 in 9.0 mi Calm Calm - N/A   Clear
8:15 PM 86.0 °F 28.4 °F 12% 29.85 in 10.0 mi Calm Calm - N/A   Clear
8:35 PM 84.2 °F 35.6 °F 18% 29.85 in 5.0 mi Calm Calm - N/A   Clear
8:55 PM 86.0 °F 30.2 °F 13% 29.85 in 8.0 mi Calm Calm - N/A   Clear
9:15 PM 82.4 °F 26.6 °F 13% 29.85 in 10.0 mi Calm Calm - N/A   Clear
9:35 PM 84.2 °F 26.6 °F 12% 29.85 in 10.0 mi Calm Calm - N/A   Clear
9:55 PM 82.4 °F 26.6 °F 13% 29.86 in 10.0 mi North 5.8 mph - N/A   Clear
10:15 PM 82.4 °F 24.8 °F 12% 29.86 in 10.0 mi NNE 4.6 mph - N/A   Clear
10:35 PM 80.6 °F 24.8 °F 13% 29.85 in 10.0 mi NNE 5.8 mph - N/A   Clear
10:55 PM 80.6 °F 24.8 °F 13% 29.85 in 10.0 mi North 5.8 mph - N/A   Mostly Cloudy
11:15 PM 78.8 °F 24.8 °F 14% 29.85 in 10.0 mi NNW 5.8 mph - N/A   Overcast
11:35 PM 80.6 °F 24.8 °F 13% 29.85 in 10.0 mi NNE 4.6 mph - N/A   Overcast
11:55 PM 80.6 °F 24.8 °F 13% 29.85 in 10.0 mi North 8.1 mph - N/A   Overcast